Time;durP1;ratioP1;P1;durP2;ratioP2;P2;SDS_P1;SDS_P2;PMS_P1;PMS_P2;Temp;Humidity;BMP_temperature;BMP_pressure;BME280_temperature;BME280_humidity;BME280_pressure;Samples;Min_cycle;Max_cycle;Signal;HPM_P1;HPM_P2
2022/01/10 00:00:36;;;;;;;57.63;22.83;;;;;;;-0.49;100.00;100923.50;5028351;28;20037;-75
2022/01/10 00:03:03;;;;;;;49.63;20.75;;;;;;;-0.53;100.00;100922.00;5023428;28;20029;-76
2022/01/10 00:05:28;;;;;;;53.33;23.85;;;;;;;-0.50;100.00;100935.75;5046255;28;20403;-76
2022/01/10 00:07:54;;;;;;;61.33;25.00;;;;;;;-0.47;100.00;100943.47;5046482;28;20036;-76
2022/01/10 00:10:19;;;;;;;57.15;23.27;;;;;;;-0.48;100.00;100949.63;5028589;28;20743;-78
2022/01/10 00:12:45;;;;;;;58.70;24.13;;;;;;;-0.50;100.00;100942.78;5012386;28;20036;-75
2022/01/10 00:15:11;;;;;;;54.22;23.05;;;;;;;-0.49;100.00;100950.56;5028241;28;20283;-78
2022/01/10 00:17:38;;;;;;;58.97;24.00;;;;;;;-0.49;100.00;100955.81;5028388;28;20398;-75
2022/01/10 00:20:15;;;;;;;57.42;23.63;;;;;;;-0.50;100.00;100959.38;5028393;28;20040;-75
2022/01/10 00:22:45;;;;;;;73.70;25.75;;;;;;;-0.48;100.00;100967.16;5053183;28;20127;-78
2022/01/10 00:25:13;;;;;;;55.85;25.08;;;;;;;-0.52;100.00;100970.88;5011656;28;20048;-76
2022/01/10 00:27:38;;;;;;;49.97;21.95;;;;;;;-0.52;100.00;100969.09;5028520;28;20094;-76
2022/01/10 00:30:04;;;;;;;63.20;26.93;;;;;;;-0.49;100.00;100991.72;5050203;28;20037;-76
2022/01/10 00:32:30;;;;;;;56.08;24.30;;;;;;;-0.50;100.00;100992.63;5032440;28;20290;-77
2022/01/10 00:34:55;;;;;;;70.57;26.00;;;;;;;-0.52;100.00;100997.94;5032394;28;20029;-77
2022/01/10 00:37:21;;;;;;;46.55;21.08;;;;;;;-0.48;100.00;101009.97;5016257;28;20510;-76
2022/01/10 00:39:48;;;;;;;48.10;21.70;;;;;;;-0.46;100.00;101020.38;5032192;28;20037;-76
2022/01/10 00:42:14;;;;;;;53.05;20.80;;;;;;;-0.53;100.00;101009.38;5031880;28;20045;-76
2022/01/10 00:44:45;;;;;;;47.28;20.17;;;;;;;-0.46;100.00;101029.09;5014952;28;20482;-75
2022/01/10 00:47:11;;;;;;;44.13;19.92;;;;;;;-0.35;100.00;101048.63;5015445;28;20118;-78
2022/01/10 00:49:36;;;;;;;52.28;20.65;;;;;;;-0.35;100.00;101053.88;5031713;28;20087;-75
2022/01/10 00:52:02;;;;;;;44.90;20.05;;;;;;;-0.38;100.00;101047.03;5015588;28;20061;-76
2022/01/10 00:54:27;;;;;;;42.63;19.73;;;;;;;-0.38;100.00;101057.50;5031614;28;20045;-76
2022/01/10 00:56:53;;;;;;;48.10;21.57;;;;;;;-0.34;100.00;101077.41;5012537;28;20041;-76
2022/01/10 00:59:18;;;;;;;51.10;23.20;;;;;;;-0.39;100.00;101070.75;5031404;28;21159;-75
2022/01/10 01:01:43;;;;;;;54.67;21.30;;;;;;;-0.39;100.00;101076.81;5049280;28;20108;-76
2022/01/10 01:04:09;;;;;;;46.90;20.47;;;;;;;-0.43;100.00;101076.13;5031486;28;20678;-76
2022/01/10 01:06:34;;;;;;;54.27;20.10;;;;;;;-0.48;100.00;101072.91;5049601;28;20260;-76
2022/01/10 01:09:05;;;;;;;48.33;19.63;;;;;;;-0.47;100.00;101085.13;5049515;28;20303;-76
2022/01/10 01:14:11;;;;;;;58.78;20.95;;;;;;;-0.45;100.00;101103.38;5031207;28;20037;-76
2022/01/10 01:19:51;;;;;;;54.72;21.77;;;;;;;-0.40;100.00;101124.97;5031442;28;20033;-76
2022/01/10 01:24:37;;;;;;;48.88;20.90;;;;;;;-0.46;100.00;101122.69;5030787;28;20033;-75
2022/01/10 01:27:03;;;;;;;42.58;19.05;;;;;;;-0.48;100.00;101137.66;5031090;28;20036;-76
2022/01/10 01:29:29;;;;;;;56.25;23.23;;;;;;;-0.46;100.00;101146.28;5048988;28;20437;-76
2022/01/10 01:31:55;;;;;;;46.63;20.55;;;;;;;-0.44;100.00;101158.41;5031262;28;20021;-76
2022/01/10 01:34:24;;;;;;;46.83;20.20;;;;;;;-0.44;100.00;101162.81;5030840;28;20036;-76
2022/01/10 01:36:52;;;;;;;57.42;20.58;;;;;;;-0.48;100.00;101164.72;5014290;28;20124;-76
2022/01/10 01:39:22;;;;;;;70.93;24.02;;;;;;;-0.47;100.00;101168.19;5030429;28;20025;-76
2022/01/10 01:42:00;;;;;;;44.78;19.02;;;;;;;-0.48;100.00;101177.00;5014441;28;20091;-76
2022/01/10 01:44:25;;;;;;;43.80;19.13;;;;;;;-0.44;100.00;101189.03;5010679;28;20115;-76
2022/01/10 01:46:51;;;;;;;44.50;18.67;;;;;;;-0.45;100.00;101196.03;5029540;28;20032;-76
2022/01/10 01:49:16;;;;;;;47.38;19.00;;;;;;;-0.44;100.00;101208.25;5030636;28;20076;-76
2022/01/10 01:51:41;;;;;;;48.60;19.65;;;;;;;-0.38;100.00;101209.69;5048352;28;20026;-75
2022/01/10 01:54:09;;;;;;;48.92;20.35;;;;;;;-0.34;100.00;101226.97;5030198;28;20033;-75
2022/01/10 01:56:35;;;;;;;66.53;22.77;;;;;;;-0.43;100.00;101215.16;5030710;28;20466;-76
2022/01/10 01:59:00;;;;;;;40.00;17.52;;;;;;;-0.36;100.00;101233.22;5030400;28;20060;-76
2022/01/10 02:01:26;;;;;;;62.42;21.35;;;;;;;-0.35;100.00;101240.16;5037373;23;20056;-82
2022/01/10 02:03:53;;;;;;;54.85;21.67;;;;;;;-0.31;100.00;101260.06;5049624;28;20090;-83
2022/01/10 02:06:24;;;;;;;53.92;22.73;;;;;;;-0.34;100.00;101258.44;5034584;28;20669;-84
2022/01/10 02:08:49;;;;;;;45.17;21.00;;;;;;;-0.29;100.00;101277.44;5032076;28;20110;-85
2022/01/10 02:11:16;;;;;;;44.83;21.27;;;;;;;-0.26;100.00;101284.28;5037880;28;20025;-83
2022/01/10 02:13:42;;;;;;;48.50;20.52;;;;;;;-0.31;100.00;101281.91;5031118;28;20322;-83
2022/01/10 02:16:32;;;;;;;65.65;24.67;;;;;;;-0.31;100.00;101284.53;5033763;28;20032;-85
2022/01/10 02:18:59;;;;;;;59.97;23.63;;;;;;;-0.28;100.00;101301.88;5033739;28;20031;-82
2022/01/10 02:21:24;;;;;;;58.72;22.58;;;;;;;-0.32;100.00;101298.59;5033537;28;20017;-84
2022/01/10 02:23:50;;;;;;;49.55;20.60;;;;;;;-0.30;100.00;101312.47;5049055;28;20942;-84
2022/01/10 02:26:21;;;;;;;47.05;20.58;;;;;;;-0.31;100.00;101316.00;5034129;28;20035;-81
2022/01/10 02:28:47;;;;;;;;;;;;;;;-0.24;100.00;101332.28;5034020;28;20063;-83
2022/01/10 02:31:13;;;;;;;49.15;20.40;;;;;;;-0.27;100.00;101327.22;5041201;28;20013;-84
2022/01/10 02:33:39;;;;;;;59.40;22.95;;;;;;;-0.28;100.00;101333.38;5032646;28;20029;-81
2022/01/10 02:36:20;;;;;;;57.30;23.70;;;;;;;-0.35;100.00;101324.13;5033188;28;20747;-84
2022/01/10 02:38:50;;;;;;;47.67;19.83;;;;;;;-0.41;100.00;101324.44;5031098;28;20036;-81
2022/01/10 02:41:28;;;;;;;37.78;17.67;;;;;;;-0.25;100.00;101360.31;5032726;28;20441;-82
2022/01/10 02:43:55;;;;;;;45.47;20.25;;;;;;;-0.24;100.00;101359.38;5050322;28;20127;-82
2022/01/10 02:46:23;;;;;;;63.72;23.38;;;;;;;-0.24;100.00;101361.16;5033081;28;20401;-81
2022/01/10 02:48:50;;;;;;;59.63;22.20;;;;;;;-0.23;100.00;101365.50;5033417;28;20036;-84
2022/01/10 02:51:16;;;;;;;48.28;22.27;;;;;;;-0.28;100.00;101363.13;5033022;28;20056;-81
2022/01/10 02:53:41;;;;;;;42.45;21.00;;;;;;;-0.22;100.00;101377.69;5032353;28;20536;-83
2022/01/10 02:56:07;;;;;;;56.95;22.73;;;;;;;-0.27;100.00;101384.94;5049577;28;20104;-84
2022/01/10 02:58:33;;;;;;;;;;;;;;;-0.22;100.00;101390.81;5033415;28;20033;-82
2022/01/10 03:00:59;;;;;;;54.28;22.65;;;;;;;-0.24;100.00;101390.88;5032800;28;19917;-85
2022/01/10 03:03:30;;;;;;;48.13;21.48;;;;;;;-0.21;100.00;101397.78;5032507;28;20106;-84
2022/01/10 03:05:57;;;;;;;62.75;24.45;;;;;;;-0.19;100.00;101414.25;5049074;28;20507;-82
2022/01/10 03:08:25;;;;;;;46.05;20.33;;;;;;;-0.26;100.00;101413.75;5032882;28;20048;-82
2022/01/10 03:10:51;;;;;;;42.38;18.90;;;;;;;-0.20;100.00;101425.69;5032249;28;20037;-82
2022/01/10 03:13:17;;;;;;;47.30;19.65;;;;;;;-0.17;100.00;101432.56;5032160;28;20025;-83
2022/01/10 03:15:42;;;;;;;56.83;21.98;;;;;;;-0.18;100.00;101431.72;5048183;28;20179;-83
2022/01/10 03:18:07;;;;;;;51.80;19.37;;;;;;;-0.25;100.00;101431.19;5032608;28;20021;-84
2022/01/10 03:20:33;;;;;;;44.92;19.45;;;;;;;-0.23;100.00;101441.59;5049114;28;20291;-84
2022/01/10 03:22:58;;;;;;;49.13;21.03;;;;;;;-0.24;100.00;101443.34;5049026;28;20115;-83
2022/01/10 03:25:24;;;;;;;59.97;23.10;;;;;;;-0.24;100.00;101445.13;5048266;28;20275;-84
2022/01/10 03:27:54;;;;;;;53.88;22.00;;;;;;;-0.26;100.00;101447.88;5033415;28;20730;-83
2022/01/10 03:30:21;;;;;;;47.40;19.42;;;;;;;-0.26;100.00;101447.88;5032816;28;20033;-84
2022/01/10 03:32:50;;;;;;;45.13;21.50;;;;;;;-0.19;100.00;101463.28;5032447;28;20086;-83
2022/01/10 03:35:24;;;;;;;47.08;20.42;;;;;;;-0.19;100.00;101456.25;5048331;28;20037;-84
2022/01/10 03:37:49;;;;;;;48.83;21.38;;;;;;;-0.15;100.00;101484.06;5032016;28;21055;-84
2022/01/10 03:40:15;;;;;;;53.13;21.77;;;;;;;-0.13;100.00;101486.63;5032006;28;20025;-82
2022/01/10 03:42:40;;;;;;;64.50;24.98;;;;;;;-0.18;100.00;101478.13;5045645;28;20033;-82
2022/01/10 03:45:07;;;;;;;67.27;24.10;;;;;;;-0.21;100.00;101479.13;5028079;28;20033;-84
2022/01/10 03:47:33;;;;;;;82.63;27.05;;;;;;;-0.23;100.00;101483.59;5031817;28;20426;-83
2022/01/10 03:49:58;;;;;;;55.92;23.98;;;;;;;-0.22;100.00;101488.75;5031520;28;20017;-84
2022/01/10 03:52:25;;;;;;;49.67;23.20;;;;;;;-0.22;100.00;101507.13;5048122;28;20035;-84
2022/01/10 03:54:51;;;;;;;48.17;19.73;;;;;;;-0.17;100.00;101506.06;5042038;28;20475;-83
2022/01/10 03:57:16;;;;;;;49.55;20.42;;;;;;;-0.16;100.00;101519.13;5031428;28;20086;-84
2022/01/10 03:59:42;;;;;;;52.05;21.70;;;;;;;-0.14;100.00;101527.78;5047978;28;20469;-84
2022/01/10 04:02:07;;;;;;;52.78;21.70;;;;;;;-0.14;100.00;101530.41;5031210;28;20052;-84
2022/01/10 04:04:36;;;;;;;50.15;22.40;;;;;;;-0.12;100.00;101549.53;5030626;28;20032;-83
2022/01/10 04:07:03;;;;;;;77.60;25.15;;;;;;;-0.15;100.00;101546.22;5039818;28;20037;-82
2022/01/10 04:09:28;;;;;;;51.92;21.30;;;;;;;-0.11;100.00;101550.41;5031263;28;20025;-83
2022/01/10 04:11:54;;;;;;;51.45;23.13;;;;;;;-0.11;100.00;101556.50;5031034;28;20121;-83
2022/01/10 04:14:20;;;;;;;51.70;22.92;;;;;;;-0.09;100.00;101573.03;5030883;28;20128;-82
2022/01/10 04:16:46;;;;;;;51.65;21.88;;;;;;;-0.06;100.00;101572.03;5047779;28;20148;-81
2022/01/10 04:19:11;;;;;;;59.00;22.85;;;;;;;-0.10;100.00;101571.31;5030968;28;20075;-84
2022/01/10 04:21:36;;;;;;;48.75;21.13;;;;;;;-0.11;100.00;101569.63;5031042;28;20037;-83
2022/01/10 04:24:02;;;;;;;49.83;22.15;;;;;;;-0.03;100.00;101593.72;5030535;28;20033;-84
2022/01/10 04:26:28;;;;;;;52.03;22.75;;;;;;;0.01;100.00;101596.22;5047820;28;20037;-85
2022/01/10 04:28:53;;;;;;;53.90;21.50;;;;;;;-0.01;100.00;101602.38;5047688;28;20237;-84
2022/01/10 04:31:19;;;;;;;50.35;21.45;;;;;;;-0.04;100.00;101592.03;5031304;28;20283;-82
2022/01/10 04:33:44;;;;;;;46.90;20.77;;;;;;;-0.08;100.00;101595.72;5028624;28;20965;-81
2022/01/10 04:36:10;;;;;;;76.55;25.33;;;;;;;-0.11;100.00;101597.66;5031342;28;20090;-84
2022/01/10 04:38:36;;;;;;;52.22;21.00;;;;;;;-0.07;100.00;101612.31;5031192;28;20029;-81
2022/01/10 04:41:03;;;;;;;83.15;26.90;;;;;;;-0.19;100.00;101600.63;5031365;28;20414;-84
2022/01/10 04:43:29;;;;;;;54.05;22.88;;;;;;;-0.12;100.00;101615.16;5031082;28;20021;-82
2022/01/10 04:45:55;;;;;;;55.75;22.38;;;;;;;-0.10;100.00;101622.97;5030959;28;20060;-83
2022/01/10 04:48:21;;;;;;;62.83;24.48;;;;;;;-0.12;100.00;101625.66;5030865;28;20035;-83
2022/01/10 04:53:32;;;;;;;54.13;20.40;;;;;;;-0.14;100.00;101624.91;5047155;28;20029;-83
2022/01/10 04:55:58;;;;;;;50.33;21.20;;;;;;;-0.15;100.00;101638.94;5031131;28;20039;-84
2022/01/10 04:58:24;;;;;;;60.03;24.25;;;;;;;-0.17;100.00;101640.75;5031317;28;20029;-84
2022/01/10 05:00:53;;;;;;;46.75;21.48;;;;;;;-0.13;100.00;101655.47;5030930;28;20021;-81
2022/01/10 05:03:19;;;;;;;58.17;24.17;;;;;;;-0.12;100.00;101654.53;5031017;28;20033;-84
2022/01/10 05:05:52;;;;;;;50.05;21.60;;;;;;;-0.11;100.00;101663.28;5030741;28;20461;-84
2022/01/10 05:08:18;;;;;;;53.58;21.55;;;;;;;-0.14;100.00;101664.28;5031048;28;20076;-82
2022/01/10 05:10:44;;;;;;;44.83;19.20;;;;;;;-0.13;100.00;101675.63;5045077;28;20045;-84
2022/01/10 05:13:10;;;;;;;51.88;21.50;;;;;;;-0.08;100.00;101684.97;5030996;28;20033;-83
2022/01/10 05:15:35;;;;;;;71.88;26.83;;;;;;;-0.10;100.00;101686.81;5033534;28;20024;-80
2022/01/10 05:18:01;;;;;;;53.03;21.80;;;;;;;-0.13;100.00;101686.13;5035556;28;20069;-85
2022/01/10 05:20:27;;;;;;;52.85;22.65;;;;;;;-0.09;100.00;101698.19;5051458;28;20440;-84
2022/01/10 05:22:53;;;;;;;;;;;;;;;-0.02;100.00;101716.19;5034275;28;20125;-84
2022/01/10 05:25:18;;;;;;;56.50;22.23;;;;;;;-0.04;100.00;101712.78;5045391;23;20024;-78
2022/01/10 05:27:44;;;;;;;72.18;28.98;;;;;;;-0.09;100.00;101714.78;5009073;28;20037;-77
2022/01/10 05:30:10;;;;;;;60.45;25.77;;;;;;;-0.04;100.00;101725.91;5009057;28;20153;-78
2022/01/10 05:32:35;;;;;;;61.25;24.98;;;;;;;-0.04;100.00;101733.78;5001174;28;20515;-78
2022/01/10 05:35:19;;;;;;;75.60;28.67;;;;;;;-0.07;100.00;101727.81;5017894;28;20030;-77
2022/01/10 05:37:44;;;;;;;64.77;25.60;;;;;;;-0.22;100.00;101713.63;5025878;28;20927;-78
2022/01/10 05:40:10;;;;;;;67.50;25.87;;;;;;;-0.07;100.00;101744.44;5017173;28;20044;-77
2022/01/10 05:42:38;;;;;;;101.85;33.25;;;;;;;0.02;100.00;101758.91;5017392;28;20303;-78
2022/01/10 05:45:04;;;;;;;70.00;30.05;;;;;;;0.02;100.00;101771.19;5022166;28;20026;-77
2022/01/10 05:47:32;;;;;;;76.57;30.83;;;;;;;-0.02;100.00;101765.25;5021510;28;20859;-78
2022/01/10 05:50:02;;;;;;;78.78;27.75;;;;;;;-0.02;100.00;101773.97;5017111;28;20018;-78
2022/01/10 05:52:33;;;;;;;67.32;25.75;;;;;;;0.09;100.00;101797.09;5001575;28;20065;-78
2022/01/10 05:54:58;;;;;;;69.65;30.55;;;;;;;0.05;100.00;101792.91;5010135;28;20057;-79
2022/01/10 05:57:24;;;;;;;122.35;36.60;;;;;;;0.09;100.00;101812.00;5017280;28;20034;-77
2022/01/10 05:59:52;;;;;;;92.30;34.47;;;;;;;0.15;100.00;101819.63;5017037;28;20403;-79
2022/01/10 06:02:17;;;;;;;96.65;39.42;;;;;;;0.14;100.00;101823.16;5016815;28;20022;-78
2022/01/10 06:04:43;;;;;;;112.03;40.97;;;;;;;0.15;100.00;101830.97;5016668;28;20466;-78
2022/01/10 06:07:19;;;;;;;101.32;39.92;;;;;;;0.28;100.00;101840.91;5017387;28;20021;-78
2022/01/10 06:09:46;;;;;;;104.75;38.75;;;;;;;0.29;100.00;101851.34;5016915;28;20483;-79
2022/01/10 06:12:11;;;;;;;114.97;43.93;;;;;;;0.32;100.00;101856.47;5000899;28;20063;-79
2022/01/10 06:14:37;;;;;;;114.63;45.22;;;;;;;0.30;100.00;101855.69;5000915;28;20091;-78
2022/01/10 06:17:03;;;;;;;104.63;41.55;;;;;;;0.29;100.00;101861.88;5018197;28;20045;-78
2022/01/10 06:19:28;;;;;;;104.72;41.30;;;;;;;0.34;100.00;101869.53;5001940;28;20041;-78
2022/01/10 06:21:54;;;;;;;102.13;40.67;;;;;;;0.34;100.00;101875.63;5017776;28;20034;-77
2022/01/10 06:24:19;;;;;;;113.68;41.97;;;;;;;0.32;100.00;101866.13;5025962;28;20056;-78
2022/01/10 06:26:44;;;;;;;113.65;43.20;;;;;;;0.30;100.00;101867.97;5017335;28;20039;-78
2022/01/10 06:29:10;;;;;;;119.45;45.22;;;;;;;0.34;100.00;101875.63;5016874;28;20073;-78
2022/01/10 06:31:35;;;;;;;108.70;42.08;;;;;;;0.33;100.00;101879.22;5019231;28;20022;-78
2022/01/10 06:34:06;;;;;;;108.88;41.67;;;;;;;0.36;100.00;101889.56;4998599;28;20041;-79
2022/01/10 06:36:32;;;;;;;113.82;43.83;;;;;;;0.32;100.00;101890.63;5025210;28;20034;-78
2022/01/10 06:38:57;;;;;;;110.85;43.05;;;;;;;0.37;100.00;101906.19;5016883;28;20018;-78
2022/01/10 06:41:23;;;;;;;122.97;46.22;;;;;;;0.34;100.00;101906.31;5016702;28;20049;-78
2022/01/10 06:43:49;;;;;;;120.80;47.10;;;;;;;0.34;100.00;101907.16;5016187;28;20033;-79
2022/01/10 06:46:15;;;;;;;109.50;44.45;;;;;;;0.44;100.00;101935.66;5016731;28;20281;-78
2022/01/10 06:48:42;;;;;;;112.68;46.63;;;;;;;0.40;100.00;101934.97;5000319;28;20018;-78
2022/01/10 06:51:07;;;;;;;125.47;43.60;;;;;;;0.45;100.00;101942.63;5016428;28;20109;-78
2022/01/10 06:53:33;;;;;;;119.07;49.25;;;;;;;0.41;100.00;101955.88;5001492;28;20840;-78
2022/01/10 06:56:00;;;;;;;119.38;45.95;;;;;;;0.45;100.00;101961.03;5005087;28;20140;-78
2022/01/10 06:58:26;;;;;;;118.10;45.50;;;;;;;0.44;100.00;101959.31;4999167;28;20633;-78
2022/01/10 07:00:52;;;;;;;120.80;45.93;;;;;;;0.51;100.00;101973.88;5014262;28;20129;-78
2022/01/10 07:03:18;;;;;;;125.90;47.72;;;;;;;0.47;100.00;101972.31;4998313;28;20025;-78
2022/01/10 07:05:56;;;;;;;116.78;46.28;;;;;;;0.50;100.00;101986.19;5014383;28;20048;-78
2022/01/10 07:08:22;;;;;;;131.02;49.40;;;;;;;0.52;100.00;101991.38;5015362;28;20033;-78
2022/01/10 07:10:54;;;;;;;121.30;46.50;;;;;;;0.54;100.00;102002.66;5015008;28;20026;-79
2022/01/10 07:13:23;;;;;;;130.25;50.55;;;;;;;0.53;100.00;102000.94;5000344;28;20034;-79
2022/01/10 07:15:49;;;;;;;120.85;48.20;;;;;;;0.47;100.00;101995.94;5000755;28;20061;-78
2022/01/10 07:18:14;;;;;;;129.05;49.17;;;;;;;0.55;100.00;102015.72;5016296;28;20065;-78
2022/01/10 07:20:45;;;;;;;125.53;46.38;;;;;;;0.51;100.00;102008.03;5014585;28;20741;-78
2022/01/10 07:23:10;;;;;;;127.28;47.22;;;;;;;0.54;100.00;102021.03;5015923;28;20051;-78
2022/01/10 07:25:36;;;;;;;123.30;46.43;;;;;;;0.50;100.00;102011.59;4999440;28;20037;-78
2022/01/10 07:28:02;;;;;;;128.98;49.50;;;;;;;0.59;100.00;102032.22;5016488;28;20762;-78
2022/01/10 07:30:27;;;;;;;131.88;47.63;;;;;;;0.61;100.00;102035.66;5025664;28;20116;-79
2022/01/10 07:32:53;;;;;;;112.43;45.83;;;;;;;0.54;100.00;102028.94;5008922;28;20083;-79
2022/01/10 07:35:18;;;;;;;127.30;51.13;;;;;;;0.58;100.00;102033.13;5018074;28;20041;-78
2022/01/10 07:37:44;;;;;;;126.85;46.17;;;;;;;0.55;100.00;102034.13;5004315;28;20038;-79
2022/01/10 07:40:10;;;;;;;157.73;54.80;;;;;;;0.56;100.00;102037.59;5007144;28;20115;-78
2022/01/10 07:42:35;;;;;;;124.00;48.88;;;;;;;0.59;100.00;102055.88;5014361;28;20451;-77
2022/01/10 07:45:08;;;;;;;120.05;45.95;;;;;;;0.57;100.00;102052.47;5013540;28;20025;-79
2022/01/10 07:47:34;;;;;;;122.22;46.80;;;;;;;0.50;100.00;102051.03;4997513;28;20042;-77
2022/01/10 07:50:00;;;;;;;122.68;47.08;;;;;;;0.66;100.00;102083.63;5022288;28;20909;-78
2022/01/10 07:52:26;;;;;;;137.43;49.08;;;;;;;0.61;100.00;102072.44;5010281;28;20116;-77
2022/01/10 07:54:53;;;;;;;122.05;46.10;;;;;;;0.63;100.00;102084.59;5015636;28;20164;-78
2022/01/10 07:57:18;;;;;;;;;;;;;;;0.67;100.00;102087.94;5008767;28;20061;-77
2022/01/10 07:59:44;;;;;;;129.13;45.88;;;;;;;0.69;100.00;102090.50;4998881;28;19972;-78
2022/01/10 08:02:10;;;;;;;132.77;48.05;;;;;;;0.63;100.00;102081.97;5081839;23;20048;-76
2022/01/10 08:04:36;;;;;;;194.95;53.20;;;;;;;0.66;100.00;102091.50;5068192;28;20038;-76
2022/01/10 08:07:03;;;;;;;122.57;45.10;;;;;;;0.65;100.00;102096.81;5065257;28;20032;-77
2022/01/10 08:09:28;;;;;;;137.90;49.60;;;;;;;0.69;100.00;102117.66;5070130;28;20056;-77
2022/01/10 08:11:59;;;;;;;200.60;57.77;;;;;;;0.70;100.00;102121.97;5087109;28;20059;-77
2022/01/10 08:14:28;;;;;;;134.95;49.90;;;;;;;0.73;100.00;102129.75;5068893;28;20040;-77
2022/01/10 08:16:54;;;;;;;129.13;49.50;;;;;;;0.80;100.00;102154.84;5068478;28;20022;-76
2022/01/10 08:19:19;;;;;;;134.00;49.53;;;;;;;0.80;100.00;102151.38;5048529;28;20035;-77
2022/01/10 08:21:44;;;;;;;135.10;49.90;;;;;;;0.79;100.00;102141.75;5083862;28;20092;-76
2022/01/10 08:24:10;;;;;;;164.30;52.78;;;;;;;0.79;100.00;102147.88;5086119;28;20766;-76
2022/01/10 08:26:35;;;;;;;189.10;53.45;;;;;;;0.79;100.00;102149.66;5051914;28;20034;-75
2022/01/10 08:29:01;;;;;;;103.07;43.80;;;;;;;0.80;100.00;102157.50;5050719;28;20059;-77
2022/01/10 08:31:26;;;;;;;136.55;48.88;;;;;;;0.85;100.00;102159.91;5090873;28;20262;-76
2022/01/10 08:33:52;;;;;;;144.73;50.80;;;;;;;0.84;100.00;102159.06;5085881;28;20111;-77
2022/01/10 08:36:17;;;;;;;134.00;48.88;;;;;;;0.86;100.00;102160.78;5068061;28;20024;-77
2022/01/10 08:38:43;;;;;;;132.57;51.15;;;;;;;0.82;100.00;102160.06;5068262;28;20036;-77
2022/01/10 08:41:08;;;;;;;120.13;45.78;;;;;;;0.85;100.00;102165.19;5067807;28;20024;-75
2022/01/10 08:43:34;;;;;;;131.73;53.00;;;;;;;0.91;100.00;102175.41;5050632;28;20313;-77
2022/01/10 08:45:59;;;;;;;140.18;50.10;;;;;;;0.92;100.00;102177.16;5067809;28;20135;-77
2022/01/10 08:48:24;;;;;;;138.70;52.00;;;;;;;0.95;100.00;102190.16;5059658;28;20115;-76
2022/01/10 08:50:51;;;;;;;140.52;52.67;;;;;;;0.97;100.00;102184.84;5071485;28;20566;-76
2022/01/10 08:53:17;;;;;;;138.75;52.88;;;;;;;1.01;100.00;102191.69;5090630;28;20119;-77
2022/01/10 08:55:44;;;;;;;132.35;51.38;;;;;;;0.99;100.00;102188.25;5052281;28;20120;-77
2022/01/10 08:58:10;;;;;;;131.43;50.78;;;;;;;1.01;100.00;102191.69;5071860;28;20036;-76
2022/01/10 09:00:35;;;;;;;115.13;46.50;;;;;;;1.05;100.00;102198.50;5052611;28;20020;-76
2022/01/10 09:03:02;;;;;;;127.60;50.80;;;;;;;1.07;100.00;102203.72;5094022;28;20059;-77
2022/01/10 09:05:29;;;;;;;148.32;55.30;;;;;;;1.16;100.00;102212.06;5071985;28;20086;-77
2022/01/10 09:07:58;;;;;;;132.60;51.35;;;;;;;1.21;100.00;102225.03;5054331;28;20028;-79
2022/01/10 09:10:25;;;;;;;155.65;58.80;;;;;;;1.20;100.00;102218.06;5071329;28;20515;-76
2022/01/10 09:12:50;;;;;;;137.70;51.70;;;;;;;1.21;100.00;102215.34;5071056;28;20547;-75
2022/01/10 09:15:15;;;;;;;150.07;55.90;;;;;;;1.23;100.00;102216.13;5089222;28;20024;-75
2022/01/10 09:17:42;;;;;;;116.83;48.30;;;;;;;1.27;100.00;102222.97;5056453;28;20109;-75
2022/01/10 09:20:08;;;;;;;132.98;54.95;;;;;;;1.26;100.00;102221.28;5051347;28;20028;-76
2022/01/10 09:22:33;;;;;;;;;;;;;;;1.32;100.00;102228.03;5077268;28;20685;-76
2022/01/10 09:24:59;;;;;;;131.23;51.08;;;;;;;1.32;100.00;102224.56;5070954;28;19954;-76
2022/01/10 09:27:25;;;;;;;156.38;58.50;;;;;;;1.35;100.00;102237.59;5054168;28;20067;-75
2022/01/10 09:29:51;;;;;;;189.77;59.72;;;;;;;1.30;100.00;102222.00;5057226;28;20385;-76
2022/01/10 09:32:16;;;;;;;131.82;52.53;;;;;;;1.31;100.00;102225.47;5075901;28;20043;-76
2022/01/10 09:34:41;;;;;;;121.68;52.35;;;;;;;1.26;100.00;102218.66;5070458;28;20397;-76
2022/01/10 09:37:07;;;;;;;136.70;52.67;;;;;;;1.25;100.00;102214.28;5088365;28;20427;-76
2022/01/10 09:39:32;;;;;;;122.03;51.45;;;;;;;1.29;100.00;102225.56;5075156;28;20040;-76
2022/01/10 09:41:58;;;;;;;125.17;51.13;;;;;;;1.37;100.00;102235.75;5070595;28;20024;-76
2022/01/10 09:44:24;;;;;;;139.00;52.58;;;;;;;1.38;100.00;102233.06;5070053;28;20512;-76
2022/01/10 09:46:50;;;;;;;125.75;50.53;;;;;;;1.43;100.00;102246.03;5070147;28;20028;-75
2022/01/10 09:49:16;;;;;;;131.57;52.05;;;;;;;1.48;100.00;102236.97;5053713;28;20473;-75
2022/01/10 09:51:42;;;;;;;;;;;;;;;1.56;100.00;102241.91;5072563;28;20039;-76
2022/01/10 09:54:07;;;;;;;137.68;53.55;;;;;;;1.53;100.00;102235.94;5069134;28;19908;-76
2022/01/10 09:56:33;;;;;;;134.15;50.75;;;;;;;1.51;100.00;102228.09;5070415;28;20036;-76
2022/01/10 09:58:59;;;;;;;119.05;50.25;;;;;;;1.51;100.00;102219.34;5070601;28;20396;-76
2022/01/10 10:01:27;;;;;;;121.68;49.40;;;;;;;1.48;100.00;102213.28;5087017;28;20028;-73
2022/01/10 10:03:58;;;;;;;127.47;50.15;;;;;;;1.48;100.00;102205.41;5088027;28;20028;-76
2022/01/10 10:06:24;;;;;;;125.00;51.60;;;;;;;1.48;100.00;102197.50;5070023;28;20405;-76
2022/01/10 10:08:50;;;;;;;143.88;50.95;;;;;;;1.48;100.00;102191.38;5053664;28;20032;-76
2022/01/10 10:11:15;;;;;;;;;;;;;;;1.54;100.00;102196.38;5070543;28;20524;-76
2022/01/10 10:13:52;;;;;;;124.72;48.58;;;;;;;1.53;100.00;102189.41;5050406;28;19995;-76
2022/01/10 10:16:18;;;;;;;145.93;54.10;;;;;;;1.54;100.00;102185.84;5069827;28;20107;-76
2022/01/10 10:18:46;;;;;;;120.28;51.05;;;;;;;1.60;100.00;102185.56;5052993;28;20114;-76
2022/01/10 10:21:13;;;;;;;118.78;51.60;;;;;;;1.63;100.00;102187.19;5068899;28;20028;-76
2022/01/10 10:23:40;;;;;;;134.18;54.50;;;;;;;1.65;100.00;102193.25;5049989;28;20033;-76
2022/01/10 10:26:06;;;;;;;112.43;48.75;;;;;;;1.69;100.00;102190.41;5087586;28;20688;-75
2022/01/10 10:28:35;;;;;;;;;;;;;;;1.64;100.00;102175.78;5053552;28;20430;-76
2022/01/10 10:31:01;;;;;;;109.10;48.05;;;;;;;1.66;100.00;102168.63;5087244;28;19988;-75
2022/01/10 10:33:26;;;;;;;133.07;53.53;;;;;;;1.62;100.00;102153.91;5049735;28;20032;-75
2022/01/10 10:35:56;;;;;;;135.33;54.57;;;;;;;1.64;100.00;102155.56;5069045;28;20036;-75
2022/01/10 10:38:24;;;;;;;141.68;55.17;;;;;;;1.62;100.00;102146.88;5087414;28;20031;-76
2022/01/10 10:40:49;;;;;;;137.85;53.80;;;;;;;1.64;100.00;102147.66;5068991;28;20024;-76
2022/01/10 10:43:14;;;;;;;118.38;50.92;;;;;;;1.72;100.00;102147.28;5069417;28;20051;-76
2022/01/10 10:45:40;;;;;;;135.60;53.20;;;;;;;1.77;100.00;102155.81;5068922;28;20120;-75
2022/01/10 10:48:08;;;;;;;140.83;54.13;;;;;;;1.78;100.00;102147.03;5069512;28;20039;-76
2022/01/10 10:50:41;;;;;;;140.60;57.47;;;;;;;1.78;100.00;102143.50;5048950;28;20278;-75
2022/01/10 10:53:10;;;;;;;137.30;57.67;;;;;;;1.75;100.00;102130.50;5061896;28;20028;-76
2022/01/10 10:55:44;;;;;;;124.32;51.90;;;;;;;1.78;100.00;102125.06;5048486;28;20047;-76
2022/01/10 10:58:10;;;;;;;123.97;52.50;;;;;;;1.80;100.00;102129.38;5062140;28;20115;-76
2022/01/10 11:00:36;;;;;;;129.20;54.60;;;;;;;1.85;100.00;102132.63;5051595;28;20417;-76
2022/01/10 11:03:02;;;;;;;121.82;51.67;;;;;;;1.84;100.00;102125.66;5077541;28;20520;-76
2022/01/10 11:05:30;;;;;;;131.50;55.47;;;;;;;1.83;100.00;102115.19;5048976;28;20078;-76
2022/01/10 11:07:57;;;;;;;127.85;50.15;;;;;;;1.83;100.00;102113.41;5068835;28;20130;-76
2022/01/10 11:10:24;;;;;;;122.30;49.33;;;;;;;1.91;100.00;102126.22;5086983;28;20028;-76
2022/01/10 11:12:55;;;;;;;133.88;53.08;;;;;;;1.86;100.00;102104.50;5086672;28;20832;-76